Time;durP1;ratioP1;P1;durP2;ratioP2;P2;SDS_P1;SDS_P2;PMS_P1;PMS_P2;Temp;Humidity;BMP_temperature;BMP_pressure;BME280_temperature;BME280_humidity;BME280_pressure;Samples;Min_cycle;Max_cycle;Signal;HPM_P1;HPM_P2
2023/11/14 08:06:06;;;;;;;13.50;1.40;;;12.00;99.90;;;;;;4897341;29;20644;-71
2023/11/14 08:08:33;;;;;;;11.90;1.20;;;12.00;99.90;;;;;;4900173;29;20304;-75
2023/11/14 08:11:01;;;;;;;5.27;1.10;;;12.00;99.90;;;;;;4899888;29;20233;-70
2023/11/14 08:13:28;;;;;;;7.10;1.03;;;12.00;99.90;;;;;;4900224;29;20214;-71
2023/11/14 08:15:55;;;;;;;7.93;1.17;;;12.10;99.90;;;;;;4899868;29;20210;-70
2023/11/14 08:18:22;;;;;;;8.43;1.47;;;12.10;99.90;;;;;;4899995;29;20232;-72
2023/11/14 08:20:48;;;;;;;6.43;0.90;;;12.10;99.90;;;;;;4900211;29;20242;-70
2023/11/14 08:23:18;;;;;;;11.87;2.60;;;12.10;99.90;;;;;;4895843;29;20665;-71
2023/11/14 08:25:44;;;;;;;9.73;2.03;;;12.10;99.90;;;;;;4899731;29;20206;-78
2023/11/14 08:28:11;;;;;;;8.87;1.93;;;12.10;99.90;;;;;;4899814;29;20214;-73
2023/11/14 08:30:38;;;;;;;4.80;1.00;;;12.10;99.90;;;;;;4899433;29;20213;-71
2023/11/14 08:33:07;;;;;;;3.90;1.37;;;12.20;99.90;;;;;;4899168;29;20669;-70
2023/11/14 08:35:34;;;;;;;10.77;1.30;;;12.20;99.90;;;;;;4899448;29;20218;-71
2023/11/14 08:38:01;;;;;;;4.73;1.00;;;12.20;99.90;;;;;;4899613;29;20210;-70
2023/11/14 08:40:29;;;;;;;4.70;1.27;;;12.10;99.90;;;;;;4899364;29;20701;-70
2023/11/14 08:42:56;;;;;;;5.33;0.93;;;12.10;99.90;;;;;;4899514;29;20229;-73
2023/11/14 08:45:24;;;;;;;6.97;1.20;;;12.00;99.90;;;;;;4899409;29;20218;-75
2023/11/14 08:47:51;;;;;;;3.93;1.07;;;11.90;99.90;;;;;;4899195;29;20210;-73
2023/11/14 08:50:18;;;;;;;10.17;1.40;;;11.80;99.90;;;;;;4899021;29;20684;-72
2023/11/14 08:52:46;;;;;;;8.23;0.97;;;11.70;99.90;;;;;;4899024;29;20230;-72
2023/11/14 08:55:13;;;;;;;10.70;1.37;;;11.70;99.90;;;;;;4899480;29;20669;-72
2023/11/14 08:57:41;;;;;;;4.60;0.90;;;11.60;99.90;;;;;;4899553;29;20341;-74
2023/11/14 09:00:10;;;;;;;5.13;1.47;;;11.60;99.90;;;;;;4898008;29;20212;-76
2023/11/14 09:02:37;;;;;;;8.03;1.13;;;11.60;99.90;;;;;;4899176;29;20317;-77
2023/11/14 09:05:04;;;;;;;6.87;1.83;;;11.60;99.90;;;;;;4899042;29;20225;-73
2023/11/14 09:07:31;;;;;;;6.20;0.90;;;11.60;99.90;;;;;;4899249;29;20301;-72
2023/11/14 09:09:58;;;;;;;8.37;1.10;;;11.50;99.90;;;;;;4899069;29;20220;-73
2023/11/14 09:12:25;;;;;;;5.60;1.00;;;11.50;99.90;;;;;;4899048;29;20242;-75
2023/11/14 09:14:53;;;;;;;3.33;0.80;;;11.50;99.90;;;;;;4898776;29;20572;-75
2023/11/14 09:17:20;;;;;;;7.97;1.60;;;11.50;99.90;;;;;;4899020;29;20309;-75
2023/11/14 09:19:48;;;;;;;4.03;1.07;;;11.50;99.90;;;;;;4899344;29;20206;-76
2023/11/14 09:22:15;;;;;;;4.03;1.10;;;11.60;99.90;;;;;;4898877;29;20242;-73
2023/11/14 09:24:42;;;;;;;6.60;1.10;;;11.50;99.90;;;;;;4898744;29;20720;-78
2023/11/14 09:27:10;;;;;;;8.60;1.87;;;11.50;99.90;;;;;;4898993;29;20301;-73
2023/11/14 09:29:37;;;;;;;2.63;0.90;;;11.40;99.90;;;;;;4898627;29;20700;-73
2023/11/14 09:32:08;;;;;;;7.17;0.80;;;11.40;99.90;;;;;;4898909;29;20230;-73
2023/11/14 09:34:35;;;;;;;7.97;0.90;;;11.30;99.90;;;;;;4898770;29;20211;-74
2023/11/14 09:37:04;;;;;;;6.67;0.50;;;11.30;99.90;;;;;;4898525;29;20736;-75
2023/11/14 09:39:31;;;;;;;3.63;0.57;;;11.30;99.90;;;;;;4898817;29;20214;-73
2023/11/14 09:41:58;;;;;;;3.27;0.60;;;11.20;99.90;;;;;;4898582;29;20328;-74
2023/11/14 09:44:26;;;;;;;6.40;0.87;;;11.20;99.90;;;;;;4898583;29;20206;-73
2023/11/14 09:46:55;;;;;;;4.33;0.93;;;11.20;99.90;;;;;;4898836;29;20213;-74
2023/11/14 09:49:23;;;;;;;2.77;0.80;;;11.30;99.90;;;;;;4898718;29;20691;-74
2023/11/14 09:51:51;;;;;;;8.50;1.20;;;11.40;99.90;;;;;;4898580;29;20596;-73
2023/11/14 09:54:18;;;;;;;6.67;1.13;;;11.40;99.90;;;;;;4898733;29;20214;-74
2023/11/14 09:56:47;;;;;;;4.40;1.00;;;11.50;99.90;;;;;;4898483;29;20218;-77
2023/11/14 09:59:14;;;;;;;11.90;1.40;;;11.50;99.90;;;;;;4898609;29;20215;-76
2023/11/14 10:01:42;;;;;;;6.23;1.10;;;11.60;99.90;;;;;;4898380;29;20257;-73
2023/11/14 10:04:10;;;;;;;8.67;1.50;;;11.60;99.90;;;;;;4898406;29;20576;-73
2023/11/14 10:06:40;;;;;;;5.27;1.60;;;11.70;99.90;;;;;;4898593;29;20207;-75
2023/11/14 10:09:09;;;;;;;6.97;1.47;;;11.70;99.90;;;;;;4898046;29;20218;-74
2023/11/14 10:11:46;;;;;;;8.23;2.10;;;11.70;99.90;;;;;;4897983;29;20230;-74
2023/11/14 10:14:13;;;;;;;12.10;1.70;;;11.80;99.90;;;;;;4898661;29;20206;-73
2023/11/14 10:16:40;;;;;;;8.97;1.17;;;11.80;99.90;;;;;;4898457;29;20305;-74
2023/11/14 10:19:12;;;;;;;7.30;1.03;;;11.90;99.90;;;;;;4898415;29;20217;-73
2023/11/14 10:21:41;;;;;;;10.60;2.23;;;11.90;99.90;;;;;;4897916;29;20249;-75
2023/11/14 10:24:18;;;;;;;10.73;3.73;;;11.90;99.90;;;;;;4898452;29;20210;-74
2023/11/14 10:26:50;;;;;;;15.93;2.60;;;11.90;99.90;;;;;;4898324;29;20205;-73
2023/11/14 10:29:18;;;;;;;5.80;1.50;;;11.90;99.90;;;;;;4898241;29;20218;-73
2023/11/14 10:31:45;;;;;;;10.37;1.10;;;12.00;99.90;;;;;;4897648;29;20234;-72
2023/11/14 10:34:26;;;;;;;6.30;1.23;;;12.00;99.90;;;;;;4898142;29;20210;-71
2023/11/14 10:36:56;;;;;;;9.53;1.97;;;12.00;99.90;;;;;;4897950;29;20302;-75
2023/11/14 10:39:23;;;;;;;9.87;1.40;;;12.00;99.90;;;;;;4898088;29;20228;-73
2023/11/14 10:41:50;;;;;;;10.20;2.57;;;12.10;99.90;;;;;;4897951;29;20704;-74
2023/11/14 10:44:17;;;;;;;7.37;1.13;;;12.10;99.90;;;;;;4898061;29;20297;-71
2023/11/14 10:46:52;;;;;;;6.77;1.23;;;12.20;99.90;;;;;;4898017;29;20207;-72
2023/11/14 10:49:20;;;;;;;5.77;1.13;;;12.10;99.90;;;;;;4897975;29;20224;-72
2023/11/14 10:51:48;;;;;;;3.20;1.10;;;12.10;99.90;;;;;;4897616;29;20692;-71
2023/11/14 10:54:17;;;;;;;5.97;1.67;;;12.10;99.90;;;;;;4897924;29;20296;-72
2023/11/14 10:56:45;;;;;;;6.70;1.07;;;12.00;99.90;;;;;;4897741;29;20305;-71
2023/11/14 10:59:14;;;;;;;10.03;1.30;;;11.90;99.90;;;;;;4897664;29;20216;-71
2023/11/14 11:01:41;;;;;;;9.73;1.13;;;11.90;99.90;;;;;;4897280;29;20297;-70
2023/11/14 11:04:09;;;;;;;9.40;1.50;;;11.90;99.90;;;;;;4897219;29;20253;-72
2023/11/14 11:06:37;;;;;;;7.47;1.20;;;12.10;99.90;;;;;;4891611;29;20696;-77
2023/11/14 11:09:06;;;;;;;9.03;1.10;;;12.50;99.90;;;;;;4887487;29;20213;-72
2023/11/14 11:11:38;;;;;;;11.87;1.53;;;12.80;99.90;;;;;;4885214;29;20287;-75
2023/11/14 11:14:09;;;;;;;8.17;1.40;;;12.90;99.90;;;;;;4892265;29;20215;-73
2023/11/14 11:16:43;;;;;;;4.90;0.80;;;12.70;99.90;;;;;;4893245;29;20214;-73
2023/11/14 11:19:12;;;;;;;5.20;1.57;;;12.60;99.90;;;;;;4894598;29;20733;-77
2023/11/14 11:21:39;;;;;;;8.13;1.20;;;12.40;99.90;;;;;;4894705;29;20242;-72
2023/11/14 11:24:09;;;;;;;4.47;1.00;;;12.30;99.90;;;;;;4896470;29;20225;-74
2023/11/14 11:27:10;;;;;;;7.67;1.57;;;12.20;99.90;;;;;;4899355;29;20250;-74
2023/11/14 11:29:49;;;;;;;5.63;1.57;;;12.30;99.90;;;;;;4890988;29;20220;-72
2023/11/14 11:32:28;;;;;;;3.50;1.10;;;12.20;99.90;;;;;;4899461;29;20330;-72
2023/11/14 11:35:23;;;;;;;5.90;1.57;;;12.10;99.90;;;;;;4898402;29;20219;-75
2023/11/14 11:37:51;;;;;;;5.43;1.03;;;12.00;99.90;;;;;;4899673;29;20210;-76
2023/11/14 11:40:21;;;;;;;8.10;1.20;;;12.00;99.90;;;;;;4900434;29;20249;-75
2023/11/14 11:42:48;;;;;;;7.77;1.27;;;12.00;99.90;;;;;;4903027;29;20757;-76
2023/11/14 11:45:34;;;;;;;5.03;0.90;;;11.90;99.90;;;;;;4903410;29;20214;-75
2023/11/14 11:48:02;;;;;;;6.83;1.40;;;12.00;99.90;;;;;;4902614;29;20210;-75
2023/11/14 11:50:30;;;;;;;9.40;1.30;;;12.00;99.90;;;;;;4898649;29;20305;-76
2023/11/14 11:53:05;;;;;;;12.03;1.10;;;11.90;99.90;;;;;;4899104;29;20237;-74
2023/11/14 11:55:32;;;;;;;7.70;1.10;;;11.90;99.90;;;;;;4900485;29;20206;-74
2023/11/14 11:58:03;;;;;;;7.03;1.90;;;11.90;99.90;;;;;;4900284;29;20709;-80
2023/11/14 12:00:32;;;;;;;5.63;1.23;;;11.90;99.90;;;;;;4900194;29;20222;-76
2023/11/14 12:03:00;;;;;;;4.97;1.67;;;11.90;99.90;;;;;;4900118;29;20242;-80
2023/11/14 12:05:28;;;;;;;5.23;1.30;;;11.80;99.90;;;;;;4882744;29;20222;-76
2023/11/14 12:07:56;;;;;;;10.87;2.47;;;11.90;99.90;;;;;;4897105;29;20214;-77
2023/11/14 12:10:23;;;;;;;2.87;1.10;;;11.90;99.90;;;;;;4900145;29;20215;-74
2023/11/14 12:12:52;;;;;;;7.43;1.20;;;11.90;99.90;;;;;;4900299;29;20272;-77
2023/11/14 12:15:20;;;;;;;5.60;1.23;;;12.00;99.90;;;;;;4900174;29;20214;-76
2023/11/14 12:17:53;;;;;;;7.10;0.90;;;11.90;99.90;;;;;;4900226;29;20262;-81
2023/11/14 12:20:21;;;;;;;6.47;0.90;;;11.90;99.90;;;;;;4899898;29;20309;-77
2023/11/14 12:22:49;;;;;;;8.63;0.80;;;11.80;99.90;;;;;;4900092;29;20333;-75
2023/11/14 12:25:18;;;;;;;10.27;1.40;;;11.80;99.90;;;;;;4899921;29;20296;-76
2023/11/14 12:28:00;;;;;;;6.67;1.53;;;11.80;99.90;;;;;;4900118;29;20292;-75
2023/11/14 12:30:27;;;;;;;5.67;0.73;;;11.80;99.90;;;;;;4898209;29;20218;-74
2023/11/14 12:33:06;;;;;;;9.70;1.60;;;11.70;99.90;;;;;;4899903;29;20718;-75
2023/11/14 12:35:55;;;;;;;5.87;1.00;;;11.90;99.90;;;;;;4899847;29;20211;-76
2023/11/14 12:38:32;;;;;;;6.57;1.63;;;11.70;99.90;;;;;;4899955;29;20215;-75
2023/11/14 12:41:19;;;;;;;13.27;3.20;;;11.80;99.90;;;;;;4899358;29;20234;-75
2023/11/14 12:43:47;;;;;;;7.77;0.90;;;11.80;99.90;;;;;;4899619;29;20210;-76
2023/11/14 12:46:21;;;;;;;2.90;1.07;;;11.90;99.90;;;;;;4899812;29;20233;-75
2023/11/14 12:49:22;;;;;;;6.30;0.90;;;11.90;99.90;;;;;;4899498;29;20221;-74
2023/11/14 12:51:52;;;;;;;5.63;1.30;;;11.90;99.90;;;;;;4894975;29;20643;-75
2023/11/14 12:54:20;;;;;;;3.40;0.93;;;11.90;99.90;;;;;;4899769;29;20221;-75
2023/11/14 12:56:48;;;;;;;5.70;0.80;;;11.90;99.90;;;;;;4899458;29;20206;-74
2023/11/14 12:59:15;;;;;;;2.43;0.70;;;12.00;99.90;;;;;;4899414;29;20210;-74
2023/11/14 13:01:44;;;;;;;3.33;0.80;;;12.10;99.90;;;;;;4899007;29;20785;-72
2023/11/14 13:04:11;;;;;;;6.13;1.47;;;12.10;99.90;;;;;;4899554;29;20296;-74
2023/11/14 13:06:39;;;;;;;7.07;1.50;;;12.10;99.90;;;;;;4899211;29;20573;-76
2023/11/14 13:09:08;;;;;;;9.33;1.80;;;12.10;99.90;;;;;;4899292;29;20765;-75
2023/11/14 13:11:35;;;;;;;7.33;1.00;;;12.20;99.90;;;;;;4899034;29;20234;-75
2023/11/14 13:14:03;;;;;;;4.97;1.33;;;12.20;99.90;;;;;;4899415;29;20211;-75
2023/11/14 13:16:35;;;;;;;8.53;1.07;;;12.20;99.90;;;;;;4899557;29;20257;-75
2023/11/14 13:19:02;;;;;;;4.97;0.80;;;12.30;99.90;;;;;;4899170;29;20270;-76
2023/11/14 13:21:29;;;;;;;10.77;2.50;;;12.40;99.90;;;;;;4898482;29;20773;-73
2023/11/14 13:23:56;;;;;;;3.43;0.83;;;12.40;99.90;;;;;;4898860;29;20238;-76
2023/11/14 13:26:24;;;;;;;5.73;1.00;;;12.30;99.90;;;;;;4898780;29;20211;-75
2023/11/14 13:28:52;;;;;;;5.70;1.83;;;12.20;99.90;;;;;;4898726;29;20577;-75
2023/11/14 13:31:19;;;;;;;7.00;1.10;;;12.20;99.90;;;;;;4898838;29;20227;-76
2023/11/14 13:33:46;;;;;;;8.63;1.27;;;12.30;99.90;;;;;;4899170;29;20290;-75
2023/11/14 13:36:16;;;;;;;7.43;1.80;;;12.30;99.90;;;;;;4898768;29;20676;-77
2023/11/14 13:38:44;;;;;;;7.50;1.77;;;12.20;99.90;;;;;;4898663;29;20217;-78
2023/11/14 13:41:11;;;;;;;12.63;1.57;;;12.20;99.90;;;;;;4898886;29;20230;-75
2023/11/14 13:43:39;;;;;;;4.17;1.20;;;12.20;99.90;;;;;;4898571;29;20234;-75
2023/11/14 13:46:07;;;;;;;4.13;0.77;;;12.10;99.90;;;;;;4898395;29;20218;-73
2023/11/14 13:48:34;;;;;;;3.20;1.30;;;12.10;99.90;;;;;;4898591;29;20670;-72
2023/11/14 13:51:01;;;;;;;6.37;1.30;;;12.10;99.90;;;;;;4898394;29;20230;-72
2023/11/14 13:53:28;;;;;;;8.80;1.70;;;12.10;99.90;;;;;;4898443;29;20215;-74
2023/11/14 13:55:55;;;;;;;4.90;1.43;;;12.10;99.90;;;;;;4889658;29;20215;-72
2023/11/14 13:58:23;;;;;;;5.60;1.50;;;12.00;99.90;;;;;;4892045;29;20203;-71
2023/11/14 14:00:51;;;;;;;7.93;1.63;;;12.00;99.90;;;;;;4880197;29;20219;-71
2023/11/14 14:03:19;;;;;;;6.03;1.50;;;11.90;99.90;;;;;;4893077;29;20234;-73
2023/11/14 14:05:47;;;;;;;3.90;1.30;;;11.90;99.90;;;;;;4898000;29;20226;-72
2023/11/14 14:08:13;;;;;;;4.97;0.90;;;11.90;99.90;;;;;;4897941;29;20666;-72
2023/11/14 14:10:40;;;;;;;3.60;0.87;;;11.90;99.90;;;;;;4898237;29;20220;-75
2023/11/14 14:13:07;;;;;;;4.23;1.57;;;11.80;99.90;;;;;;4897938;29;20305;-71
2023/11/14 14:15:35;;;;;;;3.27;1.07;;;11.90;99.90;;;;;;4884477;29;20246;-72
2023/11/14 14:18:03;;;;;;;4.00;1.43;;;11.90;99.90;;;;;;4898208;29;20638;-73
2023/11/14 14:20:31;;;;;;;4.77;0.97;;;11.80;99.90;;;;;;4897706;29;20309;-74
2023/11/14 14:22:57;;;;;;;5.23;1.10;;;11.70;99.90;;;;;;4897893;29;20328;-73
2023/11/14 14:25:25;;;;;;;3.40;1.00;;;11.70;99.90;;;;;;4897485;29;20303;-74
2023/11/14 14:27:51;;;;;;;7.80;1.60;;;11.70;99.90;;;;;;4897700;29;20547;-74
2023/11/14 14:30:20;;;;;;;5.30;1.67;;;11.60;99.90;;;;;;4897881;29;20293;-74
2023/11/14 14:32:47;;;;;;;3.30;0.83;;;11.60;99.90;;;;;;4897847;29;20328;-76
2023/11/14 14:35:15;;;;;;;7.87;1.30;;;11.60;99.90;;;;;;4897503;29;20217;-76
2023/11/14 14:37:43;;;;;;;6.03;1.83;;;11.60;99.90;;;;;;4897339;29;20218;-74
2023/11/14 14:40:12;;;;;;;4.23;1.40;;;11.60;99.90;;;;;;4897309;29;20210;-73
2023/11/14 14:42:40;;;;;;;3.13;1.53;;;11.60;99.90;;;;;;4897653;29;20234;-73
2023/11/14 14:45:08;;;;;;;2.10;0.90;;;11.60;99.90;;;;;;4897342;29;20218;-73
2023/11/14 14:47:36;;;;;;;5.27;0.73;;;11.50;99.90;;;;;;4897270;29;20211;-73
2023/11/14 14:50:04;;;;;;;3.93;0.73;;;11.50;99.90;;;;;;4896688;29;20203;-72
2023/11/14 14:52:33;;;;;;;3.03;0.93;;;11.50;99.90;;;;;;4878969;29;20624;-73
2023/11/14 14:55:00;;;;;;;2.67;1.03;;;11.50;99.90;;;;;;4894221;29;20635;-73
2023/11/14 14:57:27;;;;;;;6.53;1.07;;;11.50;99.90;;;;;;4897187;29;20217;-73
2023/11/14 14:59:54;;;;;;;7.47;1.23;;;11.50;99.90;;;;;;4901459;29;20202;-74
2023/11/14 15:02:22;;;;;;;3.30;1.07;;;11.50;99.90;;;;;;4901353;29;20238;-73
2023/11/14 15:04:49;;;;;;;1.13;0.60;;;11.40;99.90;;;;;;4890354;29;20219;-73
2023/11/14 15:07:16;;;;;;;4.33;0.70;;;11.40;99.90;;;;;;4896743;29;20206;-73
2023/11/14 15:09:45;;;;;;;1.60;0.83;;;11.40;99.90;;;;;;4901063;29;20210;-73
2023/11/14 15:12:12;;;;;;;2.50;1.17;;;11.50;99.90;;;;;;4901713;29;20226;-73
2023/11/14 15:14:39;;;;;;;1.43;0.50;;;11.40;99.90;;;;;;4900950;29;20293;-73
2023/11/14 15:17:07;;;;;;;1.07;0.50;;;11.40;99.90;;;;;;4901026;29;20301;-73
2023/11/14 15:19:34;;;;;;;3.83;0.87;;;11.30;99.90;;;;;;4901215;29;20213;-74
2023/11/14 15:22:01;;;;;;;3.07;0.70;;;11.20;99.90;;;;;;4900958;29;20316;-74
2023/11/14 15:24:28;;;;;;;1.53;0.50;;;11.30;99.90;;;;;;4900996;29;20328;-74
2023/11/14 15:26:56;;;;;;;0.97;0.53;;;11.30;99.90;;;;;;4900879;29;20211;-74
2023/11/14 15:29:23;;;;;;;1.80;0.73;;;11.20;99.90;;;;;;4900760;29;20217;-74
2023/11/14 15:31:52;;;;;;;2.13;0.77;;;11.20;99.90;;;;;;4900530;29;20232;-74
2023/11/14 15:34:19;;;;;;;2.10;0.90;;;11.20;99.90;;;;;;4900528;29;20740;-75
2023/11/14 15:36:47;;;;;;;3.40;0.67;;;11.20;99.90;;;;;;4900802;29;20246;-74
2023/11/14 15:39:14;;;;;;;2.03;0.47;;;11.20;99.90;;;;;;4900531;29;20274;-78
2023/11/14 15:41:41;;;;;;;1.73;0.80;;;11.20;99.90;;;;;;4900200;29;20253;-75
2023/11/14 15:44:10;;;;;;;5.60;0.37;;;11.20;99.90;;;;;;4900227;29;20240;-75
2023/11/14 15:46:37;;;;;;;1.87;0.80;;;11.20;99.90;;;;;;4900808;29;20218;-75
2023/11/14 15:49:04;;;;;;;1.47;0.90;;;11.20;99.90;;;;;;4898027;29;20297;-77
2023/11/14 15:51:31;;;;;;;1.13;0.43;;;11.20;99.90;;;;;;4891744;29;20297;-76
2023/11/14 15:53:58;;;;;;;1.57;0.53;;;11.10;99.90;;;;;;4900380;29;20206;-76
2023/11/14 15:56:25;;;;;;;3.47;1.17;;;11.10;99.90;;;;;;4900278;29;20207;-75
2023/11/14 15:58:54;;;;;;;1.50;0.50;;;11.20;99.90;;;;;;4900391;29;20221;-76
2023/11/14 16:01:22;;;;;;;2.23;1.87;;;11.20;99.90;;;;;;4900372;29;20320;-77
2023/11/14 16:03:49;;;;;;;5.47;0.80;;;11.20;99.90;;;;;;4900279;29;20246;-77
2023/11/14 16:06:16;;;;;;;3.37;0.63;;;11.20;99.90;;;;;;4888174;29;20411;-78
2023/11/14 16:08:43;;;;;;;1.73;0.60;;;11.20;99.90;;;;;;4899836;29;20207;-75
2023/11/14 16:11:10;;;;;;;2.30;0.50;;;11.20;99.90;;;;;;4900575;29;20317;-75
2023/11/14 16:13:37;;;;;;;2.93;0.40;;;11.20;99.90;;;;;;4899901;29;20241;-74
2023/11/14 16:16:07;;;;;;;3.20;0.40;;;11.20;99.90;;;;;;4900195;29;20727;-74
2023/11/14 16:18:36;;;;;;;1.77;0.70;;;11.20;99.90;;;;;;4900329;29;20214;-77
2023/11/14 16:21:03;;;;;;;1.33;0.53;;;11.20;99.90;;;;;;4883414;29;20635;-77
2023/11/14 16:23:30;;;;;;;3.63;0.60;;;11.20;99.90;;;;;;4881351;29;20278;-77
2023/11/14 16:25:57;;;;;;;1.33;0.60;;;11.10;99.90;;;;;;4885271;29;20206;-78
2023/11/14 16:28:24;;;;;;;2.50;0.77;;;11.20;99.90;;;;;;4899809;29;20216;-76
2023/11/14 16:30:51;;;;;;;0.80;0.50;;;11.20;99.90;;;;;;4899697;29;20239;-77
2023/11/14 16:33:18;;;;;;;0.60;0.50;;;11.20;99.90;;;;;;4899888;29;20206;-76
2023/11/14 16:35:47;;;;;;;1.17;0.50;;;11.10;99.90;;;;;;4899296;29;20330;-75
2023/11/14 16:38:14;;;;;;;3.73;0.70;;;11.10;99.90;;;;;;4898855;29;20206;-78
2023/11/14 16:40:41;;;;;;;2.10;0.60;;;11.20;99.90;;;;;;4886499;29;20203;-77
2023/11/14 16:43:08;;;;;;;2.60;0.87;;;11.20;99.90;;;;;;4883952;29;20234;-74
2023/11/14 16:45:36;;;;;;;1.87;1.17;;;11.30;99.90;;;;;;4898974;29;20371;-76
2023/11/14 16:48:04;;;;;;;1.93;1.13;;;11.20;99.90;;;;;;4893930;29;20211;-74
2023/11/14 16:50:31;;;;;;;1.83;0.40;;;11.20;99.90;;;;;;4894105;29;20247;-74
2023/11/14 16:52:59;;;;;;;1.17;0.40;;;11.20;99.90;;;;;;4897191;29;20228;-74
2023/11/14 16:55:26;;;;;;;1.03;0.40;;;11.20;99.90;;;;;;4895554;29;20206;-73
2023/11/14 16:57:53;;;;;;;2.27;0.57;;;11.20;99.90;;;;;;4896913;29;20214;-73
2023/11/14 17:00:20;;;;;;;1.60;0.50;;;11.20;99.90;;;;;;4897227;29;20206;-76
2023/11/14 17:02:48;;;;;;;0.37;0.37;;;11.20;99.90;;;;;;4897397;29;20234;-71
2023/11/14 17:05:16;;;;;;;1.60;0.70;;;11.20;99.90;;;;;;4897445;29;20215;-73
2023/11/14 17:07:43;;;;;;;1.80;0.60;;;11.10;99.90;;;;;;4896971;29;20274;-73
2023/11/14 17:10:11;;;;;;;3.20;0.90;;;11.10;99.90;;;;;;4896780;29;20222;-71
2023/11/14 17:12:38;;;;;;;2.60;1.07;;;11.00;99.90;;;;;;4897369;29;20238;-73
2023/11/14 17:15:07;;;;;;;1.47;0.80;;;10.90;99.90;;;;;;4897786;29;20606;-76
2023/11/14 17:17:34;;;;;;;1.53;0.70;;;10.90;99.90;;;;;;4896123;29;20303;-76
2023/11/14 17:20:01;;;;;;;0.60;0.40;;;10.90;99.90;;;;;;4897100;29;20674;-73
2023/11/14 17:22:28;;;;;;;0.97;0.50;;;10.80;99.90;;;;;;4896727;29;20242;-76
2023/11/14 17:24:55;;;;;;;0.87;0.40;;;10.80;99.90;;;;;;4895974;29;20787;-74
2023/11/14 17:27:26;;;;;;;1.73;0.40;;;10.70;99.90;;;;;;4897047;29;20214;-72
2023/11/14 17:29:53;;;;;;;1.20;0.57;;;10.70;99.90;;;;;;4897281;29;20293;-75
2023/11/14 17:32:20;;;;;;;1.90;0.70;;;10.70;99.90;;;;;;4896328;29;20713;-72
2023/11/14 17:34:47;;;;;;;2.30;0.43;;;10.70;99.90;;;;;;4896155;29;20623;-73
2023/11/14 17:37:14;;;;;;;0.90;0.50;;;10.70;99.90;;;;;;4896690;29;20618;-74
2023/11/14 17:39:41;;;;;;;0.70;0.40;;;10.60;99.90;;;;;;4894191;29;20216;-79
2023/11/14 17:42:08;;;;;;;4.20;0.50;;;10.70;99.90;;;;;;4878359;29;20246;-77
2023/11/14 17:44:36;;;;;;;1.40;0.60;;;10.60;99.90;;;;;;4887430;29;20249;-78
2023/11/14 17:47:09;;;;;;;0.50;0.40;;;10.60;99.90;;;;;;4889142;29;20662;-74
2023/11/14 17:49:36;;;;;;;1.00;0.77;;;10.60;99.90;;;;;;4896228;29;20215;-75
2023/11/14 17:52:04;;;;;;;1.97;0.77;;;10.60;99.90;;;;;;4880929;29;20726;-75
2023/11/14 17:54:31;;;;;;;0.80;0.50;;;10.70;99.90;;;;;;4877231;29;20258;-77
2023/11/14 17:56:58;;;;;;;1.10;0.70;;;10.60;99.90;;;;;;4889518;29;20628;-75
2023/11/14 17:59:25;;;;;;;1.13;0.60;;;10.70;99.90;;;;;;4895414;29;20662;-74
2023/11/14 18:01:53;;;;;;;2.97;0.70;;;10.60;99.90;;;;;;4892526;29;20224;-74
2023/11/14 18:04:20;;;;;;;2.73;0.77;;;10.50;99.90;;;;;;4887607;29;20234;-76
2023/11/14 18:06:47;;;;;;;1.10;0.67;;;10.50;99.90;;;;;;4883885;29;20270;-75
2023/11/14 18:09:16;;;;;;;2.30;0.60;;;10.40;99.90;;;;;;4884537;29;20218;-79
2023/11/14 18:11:44;;;;;;;1.33;0.47;;;10.30;99.90;;;;;;4892321;29;20239;-75
2023/11/14 18:14:11;;;;;;;3.97;1.87;;;10.30;99.90;;;;;;4888641;29;20265;-75
2023/11/14 18:16:38;;;;;;;4.30;1.00;;;10.20;99.90;;;;;;4891926;29;20206;-75
2023/11/14 18:19:06;;;;;;;3.47;0.93;;;10.30;99.90;;;;;;4896203;29;20658;-74
2023/11/14 18:21:33;;;;;;;4.10;1.27;;;10.20;99.90;;;;;;4893980;29;20272;-74
2023/11/14 18:24:00;;;;;;;1.90;0.80;;;10.30;99.90;;;;;;4897067;29;20324;-75
2023/11/14 18:26:27;;;;;;;3.23;1.07;;;10.30;99.90;;;;;;4892022;29;20595;-76
2023/11/14 18:28:54;;;;;;;7.20;1.17;;;10.30;99.90;;;;;;4897099;29;20279;-76
2023/11/14 18:31:21;;;;;;;1.77;0.73;;;10.40;99.90;;;;;;4891999;29;20237;-73
2023/11/14 18:33:48;;;;;;;1.80;1.00;;;10.30;99.90;;;;;;4897045;29;20252;-78
2023/11/14 18:36:16;;;;;;;3.63;0.93;;;10.40;99.90;;;;;;4890639;29;20214;-76
2023/11/14 18:38:44;;;;;;;3.20;0.60;;;10.30;99.90;;;;;;4885422;29;20210;-77
2023/11/14 18:41:11;;;;;;;2.80;0.87;;;10.30;99.90;;;;;;4894041;29;20557;-75
2023/11/14 18:43:38;;;;;;;4.10;1.30;;;10.30;99.90;;;;;;4886330;29;20776;-75
2023/11/14 18:46:07;;;;;;;2.93;1.30;;;10.20;99.90;;;;;;4888443;29;20309;-75
2023/11/14 18:48:34;;;;;;;7.37;2.10;;;10.30;99.90;;;;;;4894145;29;20210;-74
2023/11/14 18:51:01;;;;;;;3.43;0.97;;;10.30;99.90;;;;;;4886654;29;20226;-74
2023/11/14 18:53:30;;;;;;;5.73;1.90;;;10.30;99.90;;;;;;4882866;29;20231;-75
2023/11/14 18:55:57;;;;;;;3.30;1.40;;;10.30;99.90;;;;;;4886724;29;20289;-76
2023/11/14 18:58:24;;;;;;;2.20;0.77;;;10.30;99.90;;;;;;4896642;29;20202;-74
2023/11/14 19:00:52;;;;;;;3.17;1.60;;;10.30;99.90;;;;;;4893527;29;20206;-77
2023/11/14 19:03:19;;;;;;;2.10;0.90;;;10.30;99.90;;;;;;4895459;29;20225;-73
2023/11/14 19:05:46;;;;;;;2.13;0.80;;;10.20;99.90;;;;;;4894937;29;20305;-78
2023/11/14 19:08:13;;;;;;;3.63;0.90;;;10.20;99.90;;;;;;4894493;29;20207;-76
2023/11/14 19:10:42;;;;;;;2.07;1.00;;;10.20;99.90;;;;;;4895982;29;20700;-81
2023/11/14 19:13:09;;;;;;;1.93;0.60;;;10.30;99.90;;;;;;4895882;29;20301;-74
2023/11/14 19:15:36;;;;;;;4.27;1.30;;;10.30;99.90;;;;;;4894936;29;20219;-74
2023/11/14 19:18:03;;;;;;;2.97;1.73;;;10.30;99.90;;;;;;4883028;29;20231;-79
2023/11/14 19:20:31;;;;;;;5.53;2.03;;;10.30;99.90;;;;;;4890492;29;20203;-74
2023/11/14 19:22:59;;;;;;;1.97;1.10;;;10.40;99.90;;;;;;4887609;29;20974;-75
2023/11/14 19:25:26;;;;;;;3.63;1.20;;;10.40;99.90;;;;;;4891919;29;20297;-74
2023/11/14 19:27:56;;;;;;;3.43;0.90;;;10.50;99.90;;;;;;4894774;29;20211;-74
2023/11/14 19:30:23;;;;;;;3.17;1.97;;;10.50;99.90;;;;;;4884487;29;20211;-77
2023/11/14 19:32:50;;;;;;;1.60;1.00;;;10.40;99.90;;;;;;4896648;29;20322;-77
2023/11/14 19:35:17;;;;;;;6.87;1.50;;;10.40;99.90;;;;;;4895732;29;20219;-76
2023/11/14 19:37:44;;;;;;;3.80;1.50;;;10.30;99.90;;;;;;4891124;29;20291;-75
2023/11/14 19:40:12;;;;;;;3.37;1.23;;;10.30;99.90;;;;;;4889056;29;20210;-76
2023/11/14 19:42:39;;;;;;;3.37;1.30;;;10.40;99.90;;;;;;4892704;29;20226;-75
2023/11/14 19:45:08;;;;;;;2.67;1.33;;;10.30;99.90;;;;;;4895294;29;20245;-77
2023/11/14 19:47:35;;;;;;;4.83;1.40;;;10.30;99.90;;;;;;4897087;29;20321;-74
2023/11/14 19:50:03;;;;;;;1.73;1.13;;;10.20;99.90;;;;;;4899903;29;20207;-74
2023/11/14 19:52:30;;;;;;;3.43;1.90;;;10.20;99.90;;;;;;4898969;29;20321;-75
2023/11/14 19:54:57;;;;;;;3.10;1.47;;;10.20;99.90;;;;;;4899576;29;20217;-76
2023/11/14 19:57:24;;;;;;;4.47;0.97;;;10.30;99.90;;;;;;4891486;29;20835;-76
2023/11/14 19:59:51;;;;;;;5.23;1.17;;;10.30;99.90;;;;;;4900129;29;20203;-73
2023/11/14 20:02:19;;;;;;;1.93;0.90;;;10.40;99.90;;;;;;4899322;29;20230;-73
2023/11/14 20:04:46;;;;;;;2.87;1.10;;;10.40;99.90;;;;;;4900211;29;20713;-76
2023/11/14 20:07:13;;;;;;;4.70;0.97;;;10.40;99.90;;;;;;4899845;29;20206;-75
2023/11/14 20:09:42;;;;;;;3.67;1.20;;;10.30;99.90;;;;;;4897598;29;20219;-77
2023/11/14 20:12:09;;;;;;;4.67;1.17;;;10.40;99.90;;;;;;4899617;29;20234;-74
2023/11/14 20:14:36;;;;;;;6.10;0.90;;;10.40;99.90;;;;;;4897079;29;20300;-74
2023/11/14 20:17:03;;;;;;;5.10;1.13;;;10.50;99.90;;;;;;4898386;29;20218;-74
2023/11/14 20:19:32;;;;;;;3.00;0.90;;;10.50;99.90;;;;;;4899654;29;20218;-76
2023/11/14 20:21:59;;;;;;;3.07;1.20;;;10.50;99.90;;;;;;4896289;29;20222;-77
2023/11/14 20:24:26;;;;;;;2.43;1.53;;;10.60;99.90;;;;;;4899873;29;20290;-75
2023/11/14 20:26:53;;;;;;;4.33;0.90;;;10.60;99.90;;;;;;4899786;29;20206;-75
2023/11/14 20:29:20;;;;;;;2.23;1.00;;;10.50;99.90;;;;;;4899189;29;20210;-77
2023/11/14 20:31:47;;;;;;;2.03;0.80;;;10.50;99.90;;;;;;4898457;29;20773;-73
2023/11/14 20:34:13;;;;;;;2.87;0.70;;;10.50;99.90;;;;;;4898775;29;20207;-74
2023/11/14 20:36:42;;;;;;;3.93;1.10;;;10.50;99.90;;;;;;4898990;29;20670;-74
2023/11/14 20:39:14;;;;;;;5.00;1.60;;;10.50;99.90;;;;;;4899430;29;20210;-74
2023/11/14 20:41:42;;;;;;;3.50;1.10;;;10.40;99.90;;;;;;4899080;29;20233;-73
2023/11/14 20:44:09;;;;;;;2.20;0.90;;;10.40;99.90;;;;;;4899081;29;20325;-73
2023/11/14 20:46:36;;;;;;;3.67;1.03;;;10.50;99.90;;;;;;4898897;29;20606;-77
2023/11/14 20:49:03;;;;;;;4.80;0.90;;;10.50;99.90;;;;;;4899412;29;20214;-73
2023/11/14 20:51:30;;;;;;;1.70;0.70;;;10.50;99.90;;;;;;4898973;29;20313;-74
2023/11/14 20:53:59;;;;;;;2.07;0.80;;;10.50;99.90;;;;;;4899142;29;20558;-78
2023/11/14 20:56:27;;;;;;;2.23;0.77;;;10.50;99.90;;;;;;4898464;29;20301;-75